Terminal Aerodrome Forecast
Issued by NWS

Home | Current Version | Previous Version | Text Only | Print | Product List | Glossary On
Versions: 1 2 3 4 5 6 7 8 9 10 11 12 13 14 15 16
000
FTUS42 KKEY 012340
TAFMTH
TAF
KMTH 012340Z 0200/0224 12007KT P6SM FEW020 BKN200
     FM021800 15006KT P6SM VCSH SCT025 SCT050 OVC100 PROB30
      0219/0223 3SM SHRA BR BKN025 OVC050=

USA.gov is the U.S. government's official web portal to all federal, state and local government web resources and services.